Time;durP1;ratioP1;P1;durP2;ratioP2;P2;SDS_P1;SDS_P2;PMS_P1;PMS_P2;Temp;Humidity;BMP_temperature;BMP_pressure;BME280_temperature;BME280_humidity;BME280_pressure;Samples;Min_cycle;Max_cycle;Signal;HPM_P1;HPM_P2
2022/05/02 00:00:58;;;;;;;23.00;17.98;;;9.70;33.50;;;;;;7360059;19;20006;-65
2022/05/02 00:03:31;;;;;;;20.77;17.63;;;9.70;35.10;;;;;;7357057;19;20363;-64
2022/05/02 00:06:13;;;;;;;20.97;16.33;;;9.70;35.20;;;;;;7360349;19;20011;-63
2022/05/02 00:08:47;;;;;;;23.45;17.27;;;9.70;35.00;;;;;;7359668;19;20254;-64
2022/05/02 00:11:18;;;;;;;21.67;18.45;;;9.60;36.70;;;;;;7382127;19;20016;-64
2022/05/02 00:13:50;;;;;;;21.15;17.05;;;9.70;37.50;;;;;;7383198;19;20010;-64
2022/05/02 00:16:20;;;;;;;21.42;17.90;;;9.60;37.00;;;;;;7366434;19;20013;-65
2022/05/02 00:18:53;;;;;;;21.02;17.48;;;9.60;36.80;;;;;;7366653;19;20014;-64
2022/05/02 00:21:23;;;;;;;22.67;16.90;;;9.60;37.00;;;;;;7366337;19;20413;-64
2022/05/02 00:23:53;;;;;;;20.80;17.30;;;9.50;36.90;;;;;;7363117;19;20042;-64
2022/05/02 00:26:23;;;;;;;22.88;17.30;;;9.40;37.50;;;;;;7368084;19;20025;-64
2022/05/02 00:28:53;;;;;;;23.83;17.67;;;9.50;37.80;;;;;;7385637;19;20015;-64
2022/05/02 00:31:23;;;;;;;23.73;17.20;;;9.40;37.60;;;;;;7367776;19;20551;-65
2022/05/02 00:33:55;;;;;;;20.58;17.90;;;9.30;37.70;;;;;;7362514;19;20081;-64
2022/05/02 00:36:27;;;;;;;22.95;17.77;;;9.30;40.10;;;;;;7367982;19;20475;-64
2022/05/02 00:38:57;;;;;;;21.85;17.45;;;9.30;39.90;;;;;;7366704;19;20388;-64
2022/05/02 00:41:26;;;;;;;23.70;18.13;;;9.30;40.60;;;;;;7366303;19;20010;-64
2022/05/02 00:43:56;;;;;;;22.40;18.30;;;9.30;40.30;;;;;;7383556;19;20148;-64
2022/05/02 00:46:28;;;;;;;24.58;18.77;;;9.30;39.90;;;;;;7363938;19;20030;-64
2022/05/02 00:49:01;;;;;;;22.65;17.92;;;9.30;40.00;;;;;;7365344;19;20017;-64
2022/05/02 00:51:31;;;;;;;25.23;18.52;;;9.30;39.70;;;;;;7366696;19;20018;-64
2022/05/02 00:54:02;;;;;;;23.90;17.98;;;9.30;40.10;;;;;;7361914;19;20027;-63
2022/05/02 00:56:32;;;;;;;26.67;19.38;;;9.30;39.30;;;;;;7367525;19;20022;-64
2022/05/02 00:59:02;;;;;;;25.70;19.00;;;9.30;40.80;;;;;;7385170;19;20424;-64
2022/05/02 01:01:33;;;;;;;23.55;17.13;;;9.20;39.50;;;;;;7367781;19;20011;-64
2022/05/02 01:04:06;;;;;;;22.92;18.42;;;9.10;40.20;;;;;;7360685;19;20522;-64
2022/05/02 01:09:18;;;;;;;23.85;17.83;;;9.10;41.50;;;;;;7366173;19;20013;-64
2022/05/02 01:11:48;;;;;;;23.40;19.20;;;9.20;41.70;;;;;;7367234;19;20024;-63
2022/05/02 01:14:18;;;;;;;22.88;19.40;;;9.10;40.00;;;;;;7367773;19;20022;-64
2022/05/02 01:16:48;;;;;;;25.05;18.33;;;9.00;41.40;;;;;;7388946;19;20442;-64
2022/05/02 01:19:20;;;;;;;24.48;18.98;;;9.00;42.00;;;;;;7364760;19;20034;-64
2022/05/02 01:21:53;;;;;;;25.05;19.02;;;9.00;42.20;;;;;;7364458;19;20071;-64
2022/05/02 01:24:23;;;;;;;22.95;18.52;;;9.00;42.00;;;;;;7361077;19;20018;-64
2022/05/02 01:26:53;;;;;;;28.02;21.52;;;8.90;42.10;;;;;;7365900;19;20362;-64
2022/05/02 01:29:22;;;;;;;25.20;19.05;;;8.90;43.30;;;;;;7364479;19;20010;-64
2022/05/02 01:31:54;;;;;;;28.40;20.70;;;8.90;43.20;;;;;;7389233;19;20027;-64
2022/05/02 01:34:24;;;;;;;24.98;18.88;;;8.90;43.30;;;;;;7359445;19;20015;-64
2022/05/02 01:36:57;;;;;;;24.88;20.10;;;8.80;43.10;;;;;;7367976;19;20106;-64
2022/05/02 01:39:27;;;;;;;26.45;20.58;;;8.90;43.70;;;;;;7365101;19;20013;-64
2022/05/02 01:41:57;;;;;;;26.55;19.70;;;9.00;44.50;;;;;;7366641;19;20090;-64
2022/05/02 01:44:26;;;;;;;26.08;20.15;;;9.00;43.70;;;;;;7361013;19;20537;-64
2022/05/02 01:46:57;;;;;;;25.00;19.83;;;9.10;43.70;;;;;;7387132;19;20408;-64
2022/05/02 01:49:27;;;;;;;26.95;20.75;;;9.10;42.90;;;;;;7363281;19;20022;-64
2022/05/02 01:52:00;;;;;;;28.15;20.65;;;9.10;42.80;;;;;;7363048;19;20022;-64
2022/05/02 01:54:30;;;;;;;28.60;20.45;;;9.10;42.60;;;;;;7359215;19;20011;-64
2022/05/02 01:57:00;;;;;;;25.33;20.20;;;9.10;42.40;;;;;;7365442;19;20010;-64
2022/05/02 01:59:32;;;;;;;25.73;19.70;;;9.10;42.00;;;;;;7363482;19;20041;-64
2022/05/02 02:02:02;;;;;;;27.90;19.88;;;8.90;41.80;;;;;;7387203;19;20501;-64
2022/05/02 02:07:17;;;;;;;22.80;18.50;;;9.10;43.70;;;;;;7364358;19;20081;-64
2022/05/02 02:09:49;;;;;;;25.67;19.23;;;9.20;41.70;;;;;;7360973;19;20125;-64
2022/05/02 02:12:20;;;;;;;24.83;19.77;;;9.20;41.80;;;;;;7364551;19;20474;-64
2022/05/02 02:14:50;;;;;;;25.30;19.20;;;9.20;40.70;;;;;;7358938;19;20018;-62
2022/05/02 02:17:20;;;;;;;28.55;20.40;;;9.10;41.20;;;;;;7364674;19;20038;-62
2022/05/02 02:19:50;;;;;;;25.63;20.13;;;9.10;42.50;;;;;;7383387;19;20070;-62
2022/05/02 02:22:22;;;;;;;24.85;19.23;;;9.10;42.80;;;;;;7363399;19;20394;-62
2022/05/02 02:24:52;;;;;;;29.05;22.13;;;9.00;42.80;;;;;;7352252;19;20010;-63
2022/05/02 02:27:22;;;;;;;27.83;21.60;;;9.00;43.00;;;;;;7362566;19;20021;-63
2022/05/02 02:29:52;;;;;;;27.38;20.30;;;9.00;42.40;;;;;;7361942;19;20010;-63
2022/05/02 02:32:23;;;;;;;27.08;21.00;;;9.00;41.70;;;;;;7386227;19;20502;-63
2022/05/02 02:34:53;;;;;;;27.38;21.85;;;9.00;42.00;;;;;;7355198;19;20011;-63
2022/05/02 02:37:26;;;;;;;27.25;21.38;;;9.00;41.40;;;;;;7363964;19;20006;-63
2022/05/02 02:39:56;;;;;;;28.50;22.33;;;9.00;43.40;;;;;;7360094;19;20021;-63
2022/05/02 02:42:26;;;;;;;26.98;21.38;;;9.00;44.20;;;;;;7360518;19;20014;-62
2022/05/02 02:44:56;;;;;;;27.70;20.92;;;9.00;44.40;;;;;;7357998;19;20046;-62
2022/05/02 02:47:26;;;;;;;29.58;23.13;;;9.00;43.70;;;;;;7382952;19;20546;-64
2022/05/02 02:49:56;;;;;;;27.77;21.92;;;9.00;43.30;;;;;;7362198;19;20539;-62
2022/05/02 02:52:28;;;;;;;31.08;23.40;;;9.00;43.00;;;;;;7364264;19;20078;-62
2022/05/02 02:54:59;;;;;;;28.02;22.40;;;9.00;44.50;;;;;;7357046;19;20074;-64
2022/05/02 02:57:28;;;;;;;28.88;22.33;;;9.00;45.50;;;;;;7361618;19;20010;-65
2022/05/02 02:59:58;;;;;;;29.45;21.70;;;8.90;44.70;;;;;;7359287;19;20015;-64
2022/05/02 03:02:29;;;;;;;26.88;21.08;;;9.00;45.60;;;;;;7384090;19;20010;-63
2022/05/02 03:07:48;;;;;;;31.55;23.35;;;9.10;45.60;;;;;;7360991;19;20408;-63
2022/05/02 03:10:20;;;;;;;30.23;23.48;;;9.20;45.70;;;;;;7360717;19;20485;-64
2022/05/02 03:12:50;;;;;;;32.97;23.58;;;9.20;45.60;;;;;;7362795;19;20027;-64
2022/05/02 03:15:20;;;;;;;30.73;22.63;;;9.10;45.10;;;;;;7357574;19;20013;-63
2022/05/02 03:17:50;;;;;;;31.23;23.38;;;9.10;45.60;;;;;;7359791;19;20082;-64
2022/05/02 03:20:20;;;;;;;33.10;23.77;;;9.20;45.70;;;;;;7384809;19;20606;-64
2022/05/02 03:22:53;;;;;;;31.08;23.10;;;9.10;45.70;;;;;;7363347;19;20106;-64
2022/05/02 03:25:23;;;;;;;28.88;23.20;;;9.20;45.70;;;;;;7356244;19;20074;-63
2022/05/02 03:27:53;;;;;;;31.42;23.23;;;9.20;45.60;;;;;;7360231;19;20019;-63
2022/05/02 03:30:22;;;;;;;31.88;23.23;;;9.20;45.50;;;;;;7364180;19;20025;-63
2022/05/02 03:32:55;;;;;;;31.58;23.83;;;9.20;46.50;;;;;;7363027;19;20015;-64
2022/05/02 03:35:25;;;;;;;33.00;23.77;;;9.20;46.40;;;;;;7378566;19;20596;-64
2022/05/02 03:37:57;;;;;;;32.10;23.75;;;9.30;45.80;;;;;;7359762;19;20014;-63
2022/05/02 03:40:27;;;;;;;29.38;22.95;;;9.20;45.60;;;;;;7362094;19;20011;-64
2022/05/02 03:42:57;;;;;;;30.88;23.50;;;9.30;46.50;;;;;;7362000;19;20084;-63
2022/05/02 03:45:28;;;;;;;30.10;23.05;;;9.40;46.30;;;;;;7355164;19;20561;-64
2022/05/02 03:47:59;;;;;;;32.15;22.25;;;9.40;45.20;;;;;;7359097;19;20119;-64
2022/05/02 03:50:29;;;;;;;30.13;23.35;;;9.40;45.20;;;;;;7384288;19;20025;-62
2022/05/02 03:53:01;;;;;;;28.52;21.70;;;9.30;44.70;;;;;;7362039;19;20506;-64
2022/05/02 03:55:31;;;;;;;29.08;21.95;;;9.20;45.60;;;;;;7355715;19;20015;-63
2022/05/02 03:58:02;;;;;;;29.10;21.73;;;9.40;45.90;;;;;;7359600;19;20820;-64
2022/05/02 04:00:31;;;;;;;28.42;21.20;;;9.20;45.60;;;;;;7362365;19;20014;-64
2022/05/02 04:03:01;;;;;;;28.25;20.55;;;9.30;45.70;;;;;;7361950;19;20068;-63
2022/05/02 04:05:32;;;;;;;30.88;21.63;;;9.10;43.70;;;;;;7369661;19;20018;-64
2022/05/02 04:08:04;;;;;;;28.92;20.65;;;9.00;44.60;;;;;;7380644;19;20026;-63
2022/05/02 04:10:34;;;;;;;29.13;21.63;;;9.00;44.00;;;;;;7360637;19;20015;-64
2022/05/02 04:13:04;;;;;;;26.85;20.65;;;8.90;44.20;;;;;;7360627;19;20018;-64
2022/05/02 04:15:34;;;;;;;25.88;20.90;;;8.80;45.00;;;;;;7359508;19;20015;-63
2022/05/02 04:18:04;;;;;;;25.52;19.65;;;8.90;45.40;;;;;;7358594;19;20010;-62
2022/05/02 04:20:34;;;;;;;31.52;21.75;;;8.90;45.50;;;;;;7363504;19;20025;-62
2022/05/02 04:23:07;;;;;;;31.00;22.60;;;9.00;44.70;;;;;;7383355;19;20006;-63
2022/05/02 04:25:37;;;;;;;28.83;21.48;;;9.20;42.60;;;;;;7358422;19;20017;-63
2022/05/02 04:28:08;;;;;;;30.48;21.95;;;9.20;42.30;;;;;;7359697;19;20044;-63
2022/05/02 04:30:38;;;;;;;28.52;20.65;;;9.10;40.40;;;;;;7361321;19;20360;-63
2022/05/02 04:33:08;;;;;;;23.48;19.65;;;9.20;39.50;;;;;;7360809;19;20077;-63
2022/05/02 04:35:38;;;;;;;25.45;19.73;;;9.40;33.60;;;;;;7358147;19;20102;-63
2022/05/02 04:38:11;;;;;;;26.05;19.08;;;9.60;35.70;;;;;;7379523;19;20010;-64
2022/05/02 04:40:40;;;;;;;24.52;19.73;;;9.40;36.50;;;;;;7361071;19;20608;-63
2022/05/02 04:43:10;;;;;;;23.30;19.15;;;9.10;37.80;;;;;;7360336;19;20017;-64
2022/05/02 04:45:40;;;;;;;26.58;19.20;;;9.20;39.00;;;;;;7358840;19;20014;-62
2022/05/02 04:48:11;;;;;;;25.02;19.30;;;9.20;38.80;;;;;;7358122;19;20486;-62
2022/05/02 04:50:41;;;;;;;23.95;18.17;;;9.50;36.20;;;;;;7361560;19;20014;-63
2022/05/02 04:53:14;;;;;;;24.85;18.10;;;10.40;29.20;;;;;;7381184;19;20010;-64
2022/05/02 04:55:44;;;;;;;24.65;18.65;;;10.90;22.40;;;;;;7357762;19;20013;-62
2022/05/02 04:58:14;;;;;;;23.95;17.08;;;11.30;16.00;;;;;;7364934;19;20489;-63
2022/05/02 05:00:44;;;;;;;24.00;16.95;;;11.50;12.70;;;;;;7369006;19;20018;-62
2022/05/02 05:03:14;;;;;;;19.98;16.35;;;11.80;9.00;;;;;;7365926;19;20010;-63
2022/05/02 05:05:44;;;;;;;23.73;16.30;;;12.00;8.00;;;;;;7364717;19;20559;-63
2022/05/02 05:08:18;;;;;;;22.10;15.73;;;12.20;6.40;;;;;;7387164;19;20015;-63
2022/05/02 05:11:04;;;;;;;22.30;17.05;;;12.50;3.00;;;;;;7367391;19;20029;-64
2022/05/02 05:16:20;;;;;;;21.20;16.05;;;12.70;3.60;;;;;;7363503;19;20489;-63
2022/05/02 05:16:47;;;;;;;19.08;16.30;;;13.20;1.30;;;;;;7367025;19;20509;-63
2022/05/02 05:19:36;;;;;;;24.17;17.65;;;13.10;1.00;;;;;;7364329;19;20041;-63
2022/05/02 05:22:19;;;;;;;23.63;17.77;;;13.30;1.00;;;;;;7368140;19;20011;-63
2022/05/02 05:25:14;;;;;;;21.40;16.65;;;13.60;1.00;;;;;;7362195;19;20006;-63
2022/05/02 05:27:49;;;;;;;;;;;13.60;1.00;;;;;;7366587;19;20018;-64
2022/05/02 05:30:21;;;;;;;;;;;13.70;1.00;;;;;;7366604;19;20653;-63
2022/05/02 05:33:03;;;;;;;22.52;17.70;;;13.50;1.00;;;;;;7367129;19;19924;-63
2022/05/02 05:35:43;;;;;;;22.55;17.27;;;13.40;1.00;;;;;;7364692;19;20038;-64
2022/05/02 05:38:18;;;;;;;23.38;18.00;;;13.20;1.00;;;;;;7384410;19;20023;-64
2022/05/02 05:41:01;;;;;;;23.63;18.90;;;11.80;5.30;;;;;;7367090;19;20094;-65
2022/05/02 05:43:47;;;;;;;24.13;18.50;;;11.10;12.20;;;;;;7362551;19;20058;-63
2022/05/02 05:46:47;;;;;;;24.83;19.55;;;10.70;17.30;;;;;;7366394;19;20007;-64
2022/05/02 05:49:25;;;;;;;24.83;19.65;;;10.60;18.70;;;;;;7362126;19;20081;-64
2022/05/02 05:52:05;;;;;;;22.80;18.75;;;10.40;19.60;;;;;;7365438;19;20010;-63
2022/05/02 05:54:42;;;;;;;26.50;20.52;;;10.60;20.70;;;;;;7361996;19;20017;-64
2022/05/02 05:57:27;;;;;;;28.42;20.63;;;10.50;23.70;;;;;;7366579;19;20479;-64
2022/05/02 06:00:06;;;;;;;27.35;21.80;;;10.80;22.10;;;;;;7363987;19;20099;-64
2022/05/02 06:02:49;;;;;;;24.73;19.35;;;10.80;22.20;;;;;;7365877;19;20028;-64
2022/05/02 06:05:21;;;;;;;26.30;20.73;;;11.00;21.20;;;;;;7381132;19;20016;-65
2022/05/02 06:07:53;;;;;;;30.88;20.85;;;11.00;19.80;;;;;;7361480;19;20105;-64
2022/05/02 06:10:28;;;;;;;25.15;21.08;;;11.10;20.40;;;;;;7366133;19;20399;-62
2022/05/02 06:13:01;;;;;;;24.63;19.65;;;11.50;18.60;;;;;;7364630;19;20013;-64
2022/05/02 06:18:33;;;;;;;26.23;19.85;;;11.20;18.90;;;;;;7361520;19;20070;-64
2022/05/02 06:21:05;;;;;;;29.38;20.58;;;11.20;19.30;;;;;;7365695;19;20094;-64
2022/05/02 06:23:39;;;;;;;28.45;21.20;;;11.50;17.30;;;;;;7359103;19;20011;-64
2022/05/02 06:26:11;;;;;;;28.30;21.23;;;11.40;17.10;;;;;;7387555;19;20095;-63
2022/05/02 06:28:46;;;;;;;26.38;19.90;;;11.50;17.30;;;;;;7360795;19;20011;-64
2022/05/02 06:31:24;;;;;;;30.98;22.05;;;11.20;15.80;;;;;;7363007;19;20378;-63
2022/05/02 06:33:54;;;;;;;27.05;20.70;;;12.00;12.90;;;;;;7359327;19;20034;-64
2022/05/02 06:36:45;;;;;;;26.02;20.00;;;12.30;13.00;;;;;;7366208;19;20018;-63
2022/05/02 06:39:29;;;;;;;24.85;19.08;;;12.60;10.60;;;;;;7361843;19;20411;-63
2022/05/02 06:42:23;;;;;;;26.17;19.58;;;12.70;9.60;;;;;;7363696;19;20011;-63
2022/05/02 06:45:20;;;;;;;25.33;18.95;;;12.80;9.20;;;;;;7359288;19;20014;-63
2022/05/02 06:48:13;;;;;;;25.95;20.27;;;12.90;6.10;;;;;;7362077;19;20015;-64
2022/05/02 06:50:48;;;;;;;22.85;18.25;;;13.30;6.40;;;;;;7364403;19;20018;-63
2022/05/02 06:53:30;;;;;;;24.20;20.20;;;13.70;3.80;;;;;;7382251;19;20085;-63
2022/05/02 06:56:10;;;;;;;23.13;18.55;;;13.70;1.80;;;;;;7361578;19;20078;-64
2022/05/02 06:58:49;;;;;;;22.52;18.45;;;13.60;1.00;;;;;;7359534;19;20015;-64
2022/05/02 07:01:32;;;;;;;23.15;18.52;;;13.50;1.60;;;;;;7363693;19;20034;-64
2022/05/02 07:04:17;;;;;;;23.30;18.08;;;14.10;1.00;;;;;;7359035;19;20010;-64
2022/05/02 07:06:59;;;;;;;20.67;18.35;;;14.10;1.00;;;;;;7365526;19;20020;-63
2022/05/02 07:09:34;;;;;;;21.50;18.15;;;13.60;1.30;;;;;;7360779;19;20017;-64
2022/05/02 07:12:12;;;;;;;20.45;17.83;;;14.10;1.00;;;;;;7364027;19;20380;-63
2022/05/02 07:15:01;;;;;;;22.58;17.40;;;14.20;1.00;;;;;;7358176;19;20011;-63
2022/05/02 07:17:46;;;;;;;22.25;18.33;;;14.30;1.00;;;;;;7385810;19;20018;-63
2022/05/02 07:20:21;;;;;;;22.92;18.80;;;14.00;1.00;;;;;;7363728;19;20014;-64
2022/05/02 07:23:12;;;;;;;21.90;18.25;;;14.30;1.00;;;;;;7363250;19;20007;-64
2022/05/02 07:25:47;;;;;;;20.95;18.48;;;14.40;1.00;;;;;;7360449;19;20086;-63
2022/05/02 07:28:27;;;;;;;21.30;18.75;;;14.20;1.00;;;;;;7358001;19;20011;-64
2022/05/02 07:31:00;;;;;;;22.05;18.23;;;14.80;1.00;;;;;;7363808;19;20010;-64
2022/05/02 07:33:38;;;;;;;23.67;19.00;;;14.60;1.00;;;;;;7360903;19;20021;-64
2022/05/02 07:36:09;;;;;;;21.25;17.83;;;14.60;1.00;;;;;;7364367;19;20122;-64
2022/05/02 07:38:39;;;;;;;21.00;17.85;;;14.20;1.00;;;;;;7357836;19;20502;-64
2022/05/02 07:41:26;;;;;;;22.52;18.40;;;15.00;1.00;;;;;;7385518;19;20042;-64
2022/05/02 07:44:01;;;;;;;22.40;18.60;;;14.80;1.00;;;;;;7357610;19;20348;-63
2022/05/02 07:46:33;;;;;;;21.58;18.80;;;14.10;1.00;;;;;;7363445;19;20346;-63
2022/05/02 07:49:08;;;;;;;21.45;17.08;;;14.50;1.00;;;;;;7359739;19;20014;-63
2022/05/02 07:51:46;;;;;;;21.02;17.00;;;14.60;1.00;;;;;;7362842;19;20011;-63
2022/05/02 07:54:20;;;;;;;21.63;17.23;;;14.50;1.00;;;;;;7357290;19;20086;-64
2022/05/02 07:56:53;;;;;;;20.70;16.55;;;14.80;1.00;;;;;;7363805;19;20034;-63
2022/05/02 07:59:26;;;;;;;20.67;17.63;;;15.00;1.00;;;;;;7379503;19;20021;-63
2022/05/02 08:01:56;;;;;;;27.13;17.85;;;15.00;1.00;;;;;;7361928;19;20089;-63
2022/05/02 08:04:30;;;;;;;18.90;16.85;;;15.00;1.00;;;;;;7355927;19;20081;-64
2022/05/02 08:07:06;;;;;;;21.13;16.75;;;14.80;1.00;;;;;;7363495;19;20014;-63
2022/05/02 08:10:15;;;;;;;20.70;17.77;;;15.20;1.00;;;;;;7359542;19;20054;-63
2022/05/02 08:12:56;;;;;;;21.23;17.23;;;15.40;1.00;;;;;;7362628;19;20105;-64
2022/05/02 08:15:29;;;;;;;20.83;17.15;;;15.10;1.00;;;;;;7356686;19;20505;-64
2022/05/02 08:18:25;;;;;;;20.65;17.30;;;15.30;1.00;;;;;;7358791;19;20033;-63
2022/05/02 08:21:04;;;;;;;19.98;17.58;;;15.50;1.00;;;;;;7363960;19;20082;-63
2022/05/02 08:29:45;;;;;;;20.88;17.58;;;16.00;1.00;;;;;;7357189;19;20011;-64
2022/05/02 08:32:23;;;;;;;23.70;17.50;;;16.00;1.00;;;;;;7387710;19;20479;-64
2022/05/02 08:35:05;;;;;;;20.02;16.92;;;15.80;1.00;;;;;;7363042;19;20914;-64
2022/05/02 08:38:02;;;;;;;19.73;17.02;;;16.00;1.00;;;;;;7369084;19;20486;-64
2022/05/02 08:41:14;;;;;;;18.92;16.38;;;15.70;1.00;;;;;;7369590;19;20010;-63
2022/05/02 08:44:24;;;;;;;19.08;15.90;;;16.30;1.00;;;;;;7364669;19;20034;-64
2022/05/02 08:47:40;;;;;;;18.55;16.35;;;16.10;1.00;;;;;;7369204;19;20479;-65
2022/05/02 08:50:31;;;;;;;23.08;16.45;;;16.20;1.00;;;;;;7367015;19;20006;-63
2022/05/02 08:53:41;;;;;;;20.30;16.17;;;16.00;1.00;;;;;;7367612;19;20021;-64
2022/05/02 08:56:41;;;;;;;19.60;16.23;;;16.00;1.00;;;;;;7367795;19;20010;-64
2022/05/02 08:59:52;;;;;;;16.75;14.98;;;16.10;1.00;;;;;;7363472;19;20010;-63
2022/05/02 09:02:58;;;;;;;17.67;15.35;;;16.80;1.00;;;;;;7367491;19;20089;-64
2022/05/02 09:05:58;;;;;;;20.65;15.35;;;16.70;1.00;;;;;;7260284;19;2004406;-64
2022/05/02 09:08:57;;;;;;;19.27;14.40;;;16.50;1.00;;;;;;7386417;19;20019;-63
2022/05/02 09:11:37;;;;;;;17.83;15.65;;;16.50;1.00;;;;;;7266495;19;2004433;-63
2022/05/02 09:14:39;;;;;;;16.35;14.65;;;16.80;1.00;;;;;;7385725;19;20022;-63
2022/05/02 09:17:33;;;;;;;19.17;14.18;;;16.40;1.00;;;;;;7367712;19;20069;-63
2022/05/02 09:20:30;;;;;;;17.63;14.18;;;16.60;1.00;;;;;;7362797;19;20006;-63
2022/05/02 09:23:38;;;;;;;17.35;15.05;;;17.00;1.00;;;;;;7366797;19;20078;-63
2022/05/02 09:26:46;;;;;;;15.82;14.15;;;17.40;1.00;;;;;;7366680;19;20031;-64
2022/05/02 09:29:44;;;;;;;17.27;14.80;;;17.80;1.00;;;;;;7362403;19;20022;-64
2022/05/02 09:32:25;;;;;;;15.05;12.25;;;17.60;1.00;;;;;;7366467;19;20074;-65
2022/05/02 09:34:58;;;;;;;12.00;10.48;;;17.70;1.00;;;;;;7361566;19;20021;-65
2022/05/02 09:37:37;;;;;;;12.10;10.07;;;17.30;1.00;;;;;;7366420;19;20078;-64
2022/05/02 09:40:12;;;;;;;13.18;10.95;;;17.70;1.00;;;;;;7364303;19;20015;-64
2022/05/02 09:42:53;;;;;;;13.65;10.95;;;17.50;1.00;;;;;;7363672;19;20570;-65
2022/05/02 09:51:55;;;;;;;14.13;12.32;;;17.40;1.00;;;;;;7367358;19;20010;-63
2022/05/02 09:57:21;;;;;;;12.32;10.73;;;18.40;1.00;;;;;;7366812;19;19917;-63
2022/05/02 10:01:06;;;;;;;13.30;11.32;;;17.60;1.00;;;;;;7361915;19;21856;-64
2022/05/02 10:02:52;;;;;;;15.00;11.52;;;18.10;1.00;;;;;;7365901;19;20074;-63
2022/05/02 10:05:27;;;;;;;14.70;12.10;;;18.10;1.00;;;;;;7382124;19;20014;-63
2022/05/02 10:08:04;;;;;;;13.68;10.57;;;18.50;1.00;;;;;;7361855;19;20006;-64
2022/05/02 10:10:44;;;;;;;12.20;10.32;;;18.20;1.00;;;;;;7366174;19;20011;-64
2022/05/02 10:13:26;;;;;;;13.57;11.52;;;18.50;1.00;;;;;;7361713;19;20378;-63
2022/05/02 10:16:12;;;;;;;12.00;10.63;;;18.20;1.00;;;;;;7362701;19;20015;-64
2022/05/02 10:19:03;;;;;;;11.10;9.43;;;18.10;1.00;;;;;;7361153;19;20006;-64
2022/05/02 10:21:50;;;;;;;11.10;10.02;;;17.80;1.00;;;;;;7365226;19;20090;-64
2022/05/02 10:24:48;;;;;;;15.43;10.60;;;17.80;1.00;;;;;;7359185;19;20014;-64
2022/05/02 10:27:35;;;;;;;11.57;10.00;;;17.50;1.00;;;;;;7364753;19;20709;-62
2022/05/02 10:30:08;;;;;;;14.32;10.15;;;17.90;1.00;;;;;;7362043;19;20069;-65
2022/05/02 10:32:56;;;;;;;14.43;9.85;;;18.00;1.00;;;;;;7364473;19;20020;-63
2022/05/02 10:35:28;;;;;;;9.27;8.27;;;18.30;1.00;;;;;;7380122;19;20031;-63
2022/05/02 10:38:00;;;;;;;15.15;8.95;;;18.50;1.00;;;;;;7361266;19;20013;-64
2022/05/02 10:40:41;;;;;;;9.35;8.43;;;18.30;1.00;;;;;;7362472;19;20007;-64
2022/05/02 10:43:12;;;;;;;10.45;8.65;;;19.10;1.00;;;;;;7360537;19;20021;-65
2022/05/02 10:45:43;;;;;;;9.38;8.45;;;19.50;1.00;;;;;;7359889;19;20018;-64
2022/05/02 10:48:21;;;;;;;9.70;7.97;;;19.80;1.00;;;;;;7361775;19;20106;-64
2022/05/02 10:50:55;;;;;;;9.32;8.27;;;19.80;1.00;;;;;;7365147;19;20077;-64
2022/05/02 10:53:52;;;;;;;;;;;19.30;1.00;;;;;;7383737;19;20018;-64
2022/05/02 10:56:25;;;;;;;13.55;11.52;;;18.90;1.00;;;;;;7361757;19;19940;-63
2022/05/02 10:58:56;;;;;;;15.35;11.60;;;18.90;1.00;;;;;;7360131;19;20010;-63
2022/05/02 11:01:56;;;;;;;13.45;11.55;;;18.70;1.00;;;;;;7363413;19;20014;-64
2022/05/02 11:04:44;;;;;;;12.65;11.00;;;18.30;1.00;;;;;;7355800;19;20018;-64
2022/05/02 11:07:25;;;;;;;12.68;11.35;;;18.10;1.00;;;;;;7359591;19;20010;-65
2022/05/02 11:10:05;;;;;;;16.33;12.68;;;17.90;1.00;;;;;;7359550;19;20085;-64
2022/05/02 11:12:39;;;;;;;14.50;12.10;;;18.20;1.00;;;;;;7363093;19;20024;-64
2022/05/02 11:15:11;;;;;;;16.27;11.88;;;18.00;1.00;;;;;;7358721;19;20018;-64
2022/05/02 11:18:08;;;;;;;15.45;11.35;;;17.90;1.00;;;;;;7362407;19;20019;-64
2022/05/02 11:20:49;;;;;;;13.48;11.55;;;17.80;1.00;;;;;;7361680;19;20055;-64
2022/05/02 11:23:47;;;;;;;14.10;12.05;;;18.00;1.00;;;;;;7382501;19;20073;-64
2022/05/02 11:26:27;;;;;;;12.43;10.98;;;18.50;1.00;;;;;;7362844;19;20014;-63
2022/05/02 11:29:14;;;;;;;15.57;12.27;;;18.60;1.00;;;;;;7360960;19;20042;-65
2022/05/02 11:31:59;;;;;;;13.38;11.75;;;18.10;1.00;;;;;;7363753;19;20007;-63
2022/05/02 11:34:40;;;;;;;12.30;10.20;;;18.30;1.00;;;;;;7356486;19;20024;-64
2022/05/02 11:37:21;;;;;;;10.30;9.20;;;18.10;1.00;;;;;;7362776;19;20102;-65
2022/05/02 11:39:58;;;;;;;11.55;9.23;;;18.20;1.00;;;;;;7359326;19;20007;-64
2022/05/02 11:42:30;;;;;;;13.68;8.93;;;18.20;1.00;;;;;;7362537;19;20018;-63
2022/05/02 11:45:10;;;;;;;10.82;9.23;;;18.20;1.00;;;;;;7358751;19;20027;-63
2022/05/02 11:47:58;;;;;;;13.38;10.65;;;18.30;1.00;;;;;;7364421;19;20048;-65
2022/05/02 11:50:31;;;;;;;12.77;10.90;;;18.10;1.00;;;;;;7384777;19;20034;-64
2022/05/02 11:53:13;;;;;;;12.55;10.27;;;18.40;1.00;;;;;;7359976;19;20028;-64
2022/05/02 11:55:44;;;;;;;13.85;9.55;;;18.70;1.00;;;;;;7357789;19;20018;-64
2022/05/02 11:58:22;;;;;;;10.07;8.88;;;18.70;1.00;;;;;;7358675;19;20007;-64
2022/05/02 12:00:55;;;;;;;14.55;9.77;;;18.70;1.00;;;;;;7361463;19;20164;-64
2022/05/02 12:03:26;;;;;;;9.50;8.50;;;18.60;1.00;;;;;;7359257;19;21413;-64
2022/05/02 12:05:58;;;;;;;11.02;8.73;;;18.80;1.00;;;;;;7355904;19;20090;-64
2022/05/02 12:08:36;;;;;;;9.20;8.07;;;18.80;1.00;;;;;;7380441;19;20466;-65
2022/05/02 12:11:07;;;;;;;10.23;8.23;;;19.50;1.00;;;;;;7361584;19;20077;-64
2022/05/02 12:13:38;;;;;;;9.27;7.65;;;19.50;1.00;;;;;;7357593;19;20025;-64
2022/05/02 12:16:13;;;;;;;10.02;8.55;;;19.30;1.00;;;;;;7358082;19;20035;-63
2022/05/02 12:18:47;;;;;;;9.82;8.32;;;18.80;1.00;;;;;;7358982;19;20466;-62
2022/05/02 12:21:23;;;;;;;10.15;7.63;;;18.90;1.00;;;;;;7361656;19;20022;-64
2022/05/02 12:23:56;;;;;;;11.60;7.32;;;19.40;1.00;;;;;;7357973;19;20413;-63
2022/05/02 12:26:27;;;;;;;8.40;6.30;;;19.40;1.00;;;;;;7381866;19;20082;-63
2022/05/02 12:29:00;;;;;;;8.27;6.05;;;19.40;1.00;;;;;;7356526;19;20007;-66
2022/05/02 12:31:32;;;;;;;5.65;5.15;;;19.50;1.00;;;;;;7355032;19;20050;-64
2022/05/02 12:34:05;;;;;;;6.90;5.32;;;19.60;1.00;;;;;;7356009;19;20053;-63
2022/05/02 12:36:43;;;;;;;8.57;5.32;;;19.60;1.00;;;;;;7360189;19;20013;-62
2022/05/02 12:39:18;;;;;;;8.07;5.65;;;19.30;1.00;;;;;;7358622;19;20013;-63
2022/05/02 12:41:52;;;;;;;6.18;5.40;;;19.10;1.00;;;;;;7360489;19;20361;-63
2022/05/02 12:44:28;;;;;;;6.45;5.40;;;19.50;1.00;;;;;;7376836;19;20032;-63
2022/05/02 12:47:05;;;;;;;6.90;4.93;;;19.70;1.00;;;;;;7360663;19;20048;-64
2022/05/02 12:49:43;;;;;;;6.43;5.65;;;19.60;1.00;;;;;;7356881;19;20021;-64
2022/05/02 12:52:15;;;;;;;7.63;5.25;;;19.20;1.00;;;;;;7355171;19;20057;-65
2022/05/02 12:55:03;;;;;;;6.85;6.15;;;19.40;1.00;;;;;;7349253;19;20105;-64
2022/05/02 13:00:34;;;;;;;7.22;6.18;;;19.40;1.00;;;;;;7361295;19;20007;-63
2022/05/02 13:03:17;;;;;;;7.35;6.30;;;19.30;1.00;;;;;;7359779;19;20086;-64
2022/05/02 13:05:58;;;;;;;7.50;5.90;;;19.40;1.00;;;;;;7355347;19;20477;-64
2022/05/02 13:08:34;;;;;;;7.95;6.50;;;19.20;1.00;;;;;;7379107;19;20742;-63
2022/05/02 13:11:12;;;;;;;5.90;5.25;;;19.00;1.00;;;;;;7359837;19;20010;-63
2022/05/02 13:13:46;;;;;;;8.50;5.55;;;19.20;1.00;;;;;;7355848;19;20096;-63
2022/05/02 13:16:23;;;;;;;6.43;5.82;;;19.20;1.00;;;;;;7358067;19;20007;-63
2022/05/02 13:18:55;;;;;;;7.53;5.50;;;19.20;1.00;;;;;;7363136;19;20014;-63
2022/05/02 13:21:25;;;;;;;6.60;6.00;;;19.30;1.00;;;;;;7365751;19;20018;-63
2022/05/02 13:24:00;;;;;;;6.93;6.03;;;19.90;1.00;;;;;;7363860;19;20011;-64
2022/05/02 13:27:04;;;;;;;9.00;6.03;;;20.00;1.00;;;;;;7387436;19;20358;-63
2022/05/02 13:30:01;;;;;;;6.20;5.50;;;20.30;1.00;;;;;;7261233;19;2004448;-64
2022/05/02 13:32:36;;;;;;;6.00;5.47;;;19.70;1.00;;;;;;7390260;19;20018;-63
2022/05/02 13:35:12;;;;;;;6.22;5.07;;;19.70;1.00;;;;;;7358662;19;20015;-63
2022/05/02 13:37:55;;;;;;;6.15;5.35;;;20.30;1.00;;;;;;7365324;19;20046;-64
2022/05/02 13:40:44;;;;;;;5.30;4.82;;;20.60;1.00;;;;;;7364082;19;20035;-64
2022/05/02 13:43:29;;;;;;;5.00;4.50;;;20.30;1.00;;;;;;7364324;19;20458;-63
2022/05/02 13:46:16;;;;;;;6.28;4.55;;;19.80;1.00;;;;;;7358909;19;20378;-63
2022/05/02 13:49:14;;;;;;;6.55;5.80;;;19.90;1.00;;;;;;7361962;19;20741;-64
2022/05/02 13:52:14;;;;;;;10.90;5.93;;;20.30;1.00;;;;;;7366222;19;20011;-63
2022/05/02 13:54:52;;;;;;;6.03;5.28;;;20.10;1.00;;;;;;7360430;19;20014;-63
2022/05/02 13:57:36;;;;;;;5.55;4.63;;;19.70;1.00;;;;;;7366317;19;20006;-63
2022/05/02 14:03:31;;;;;;;5.03;4.53;;;19.80;1.00;;;;;;7361315;19;20035;-63
2022/05/02 14:06:06;;;;;;;5.68;4.80;;;19.90;1.00;;;;;;7364913;19;20006;-64